createdAt,value
2019-05-05T00:02:16.495Z,3.10
2019-05-05T00:05:08.401Z,3.43
2019-05-05T00:07:36.436Z,3.83
2019-05-05T00:10:09.488Z,3.70
2019-05-05T00:13:07.095Z,7.10
2019-05-05T00:16:01.726Z,3.20
2019-05-05T00:18:31.458Z,3.03
2019-05-05T00:21:00.674Z,3.97
2019-05-05T00:23:30.546Z,4.80
2019-05-05T00:25:59.928Z,3.97
2019-05-05T00:28:29.086Z,2.87
2019-05-05T00:30:58.259Z,3.83
2019-05-05T00:33:27.805Z,2.73
2019-05-05T00:35:56.953Z,3.27
2019-05-05T00:38:26.465Z,3.70
2019-05-05T00:40:55.629Z,3.00
2019-05-05T00:43:25.352Z,5.40
2019-05-05T00:45:59.175Z,4.37
2019-05-05T00:48:35.045Z,3.13
2019-05-05T00:51:04.705Z,5.57
2019-05-05T00:53:34.361Z,4.93
2019-05-05T00:56:05.214Z,2.67
2019-05-05T00:58:36.479Z,2.10
2019-05-05T01:01:20.759Z,4.43
2019-05-05T01:03:50.303Z,4.17
2019-05-05T01:06:25.614Z,2.80
2019-05-05T01:08:55.133Z,4.47
2019-05-05T01:11:25.167Z,4.97
2019-05-05T01:13:54.782Z,3.53
2019-05-05T01:16:24.743Z,3.33
2019-05-05T01:18:55.345Z,3.80
2019-05-05T01:21:24.951Z,2.87
2019-05-05T01:23:54.846Z,3.37
2019-05-05T01:26:24.878Z,3.30
2019-05-05T01:28:56.162Z,6.57
2019-05-05T01:31:25.268Z,4.77
2019-05-05T01:34:06.081Z,3.13
2019-05-05T01:36:35.280Z,3.27
2019-05-05T01:39:25.203Z,5.80
2019-05-05T01:42:04.786Z,3.90
2019-05-05T01:44:35.253Z,3.23
2019-05-05T01:47:05.343Z,4.63
2019-05-05T01:49:34.629Z,8.03
2019-05-05T01:52:04.432Z,2.73
2019-05-05T01:54:35.293Z,3.10
2019-05-05T01:57:05.458Z,36.70
2019-05-05T01:59:35.446Z,10.10
2019-05-05T02:02:05.073Z,4.00
2019-05-05T02:04:34.423Z,5.40
2019-05-05T02:07:05.461Z,2.97
2019-05-05T02:09:35.502Z,5.57
2019-05-05T02:12:05.296Z,4.70
2019-05-05T02:14:35.209Z,3.47
2019-05-05T02:17:05.177Z,3.80
2019-05-05T02:19:35.000Z,3.67
2019-05-05T02:22:06.280Z,5.03
2019-05-05T02:24:35.540Z,4.03
2019-05-05T02:27:08.680Z,3.17
2019-05-05T02:29:44.693Z,3.87
2019-05-05T02:32:36.888Z,4.30
2019-05-05T02:35:09.543Z,3.60
2019-05-05T02:37:38.749Z,3.73
2019-05-05T02:40:09.887Z,5.67
2019-05-05T02:42:39.327Z,3.90
2019-05-05T02:45:10.687Z,5.00
2019-05-05T02:47:58.953Z,4.70
2019-05-05T02:50:48.435Z,3.07
2019-05-05T02:53:04.082Z,4.10
2019-05-05T02:55:35.077Z,3.90
2019-05-05T02:58:05.444Z,3.50
2019-05-05T03:00:54.211Z,4.17
2019-05-05T03:03:23.930Z,4.70
2019-05-05T03:05:53.869Z,4.63
2019-05-05T03:08:24.260Z,5.50
2019-05-05T03:10:53.961Z,3.77
2019-05-05T03:13:24.347Z,6.00
2019-05-05T03:16:14.214Z,6.53
2019-05-05T03:18:44.002Z,5.87
2019-05-05T03:21:14.056Z,5.40
2019-05-05T03:23:44.067Z,4.53
2019-05-05T03:26:14.178Z,6.53
2019-05-05T03:28:47.747Z,5.10
2019-05-05T03:31:16.956Z,5.80
2019-05-05T03:33:46.397Z,4.63
2019-05-05T03:36:15.654Z,3.90
2019-05-05T03:38:45.586Z,5.00
2019-05-05T03:41:29.837Z,5.33
2019-05-05T03:44:05.925Z,6.13
2019-05-05T03:46:35.688Z,5.43
2019-05-05T03:49:04.955Z,4.93
2019-05-05T03:51:35.448Z,3.20
2019-05-05T03:54:04.885Z,6.20
2019-05-05T03:56:35.099Z,4.93
2019-05-05T03:59:05.280Z,3.43
2019-05-05T04:01:38.024Z,6.50
2019-05-05T04:04:24.623Z,5.83
2019-05-05T04:06:54.594Z,4.53
2019-05-05T04:09:24.362Z,3.63
2019-05-05T04:11:54.069Z,4.27
2019-05-05T04:14:24.941Z,4.17
2019-05-05T04:17:14.257Z,3.70
2019-05-05T04:19:47.097Z,2.73
2019-05-05T04:22:16.755Z,3.10
2019-05-05T04:24:46.097Z,2.03
2019-05-05T04:27:15.794Z,3.13
2019-05-05T04:29:45.482Z,3.63
2019-05-05T04:32:15.296Z,2.77
2019-05-05T04:34:44.973Z,3.00
2019-05-05T04:37:14.890Z,3.47
2019-05-05T04:39:44.663Z,2.70
2019-05-05T04:42:14.364Z,2.20
2019-05-05T04:44:44.912Z,3.30
2019-05-05T04:47:20.719Z,2.07
2019-05-05T04:49:57.393Z,2.10
2019-05-05T04:52:27.339Z,2.43
2019-05-05T04:54:57.009Z,2.20
2019-05-05T04:57:26.751Z,2.27
2019-05-05T04:59:56.405Z,3.83
2019-05-05T05:02:44.029Z,2.53
2019-05-05T05:05:26.346Z,2.20
2019-05-05T05:07:58.006Z,2.23
2019-05-05T05:10:26.958Z,1.90
2019-05-05T05:12:56.625Z,2.53
2019-05-05T05:15:26.434Z,2.87
2019-05-05T05:18:04.070Z,3.40
2019-05-05T05:20:34.093Z,4.33
2019-05-05T05:23:03.758Z,2.10
2019-05-05T05:25:34.659Z,3.90
2019-05-05T05:28:04.395Z,2.67
2019-05-05T05:30:34.718Z,2.33
2019-05-05T05:33:04.821Z,1.50
2019-05-05T05:35:35.031Z,2.27
2019-05-05T05:38:04.767Z,2.22
2019-05-05T05:40:57.714Z,3.33
2019-05-05T05:43:35.632Z,2.92
2019-05-05T05:46:16.523Z,2.90
2019-05-05T05:49:06.039Z,3.15
2019-05-05T05:51:35.330Z,2.60
2019-05-05T05:54:04.991Z,2.52
2019-05-05T05:56:34.658Z,3.30
2019-05-05T05:59:04.210Z,2.72
2019-05-05T06:01:34.589Z,3.47
2019-05-05T06:04:04.222Z,2.27
2019-05-05T06:06:34.659Z,2.00
2019-05-05T06:09:04.884Z,3.27
2019-05-05T06:11:34.580Z,3.52
2019-05-05T06:14:04.492Z,5.23
2019-05-05T06:16:34.201Z,7.22
2019-05-05T06:19:03.775Z,3.85
2019-05-05T06:21:34.792Z,2.37
2019-05-05T06:24:04.601Z,3.75
2019-05-05T06:26:34.546Z,4.83
2019-05-05T06:29:04.536Z,2.65
2019-05-05T06:31:35.289Z,2.50
2019-05-05T06:34:05.080Z,3.10
2019-05-05T06:36:34.843Z,2.90
2019-05-05T06:39:07.123Z,3.27
2019-05-05T06:41:46.708Z,2.87
2019-05-05T06:44:33.936Z,2.95
2019-05-05T06:47:05.181Z,2.00
2019-05-05T06:49:35.319Z,3.05
2019-05-05T06:52:05.232Z,3.10
2019-05-05T06:54:35.146Z,3.33
2019-05-05T06:57:05.844Z,4.10
2019-05-05T06:59:35.187Z,3.27
2019-05-05T07:02:04.892Z,2.90
2019-05-05T07:04:34.735Z,2.52
2019-05-05T07:07:05.245Z,4.95
2019-05-05T07:09:34.537Z,2.58
2019-05-05T07:12:04.567Z,3.40
2019-05-05T07:14:34.654Z,2.30
2019-05-05T07:17:05.171Z,2.60
2019-05-05T07:19:36.036Z,2.30
2019-05-05T07:22:05.687Z,2.33
2019-05-05T07:24:35.481Z,2.15
2019-05-05T07:27:05.501Z,3.55
2019-05-05T07:29:35.234Z,2.35
2019-05-05T07:32:04.932Z,2.72
2019-05-05T07:35:09.263Z,3.42
2019-05-05T07:37:38.556Z,3.75
2019-05-05T07:40:08.446Z,3.90
2019-05-05T07:42:38.228Z,2.10
2019-05-05T07:45:20.383Z,4.20
2019-05-05T07:47:39.423Z,2.20
2019-05-05T07:50:18.950Z,3.30
2019-05-05T07:52:40.553Z,2.63
2019-05-05T07:55:10.305Z,2.43
2019-05-05T07:57:40.170Z,2.70
2019-05-05T08:00:10.425Z,3.67
2019-05-05T08:02:40.511Z,3.10
2019-05-05T08:05:09.901Z,4.43
2019-05-05T08:07:39.063Z,3.20
2019-05-05T08:10:08.438Z,2.90
2019-05-05T08:12:37.550Z,4.77
2019-05-05T08:15:06.977Z,9.47
2019-05-05T08:17:46.036Z,2.30
2019-05-05T08:20:20.639Z,6.07
2019-05-05T08:22:50.340Z,7.57
2019-05-05T08:25:39.334Z,4.87
2019-05-05T08:28:18.960Z,3.03
2019-05-05T08:31:03.984Z,6.00
2019-05-05T08:33:33.678Z,5.17
2019-05-05T08:36:04.575Z,5.43
2019-05-05T08:38:34.861Z,7.17
2019-05-05T08:41:04.731Z,5.07
2019-05-05T08:43:34.713Z,3.17
2019-05-05T08:46:04.884Z,3.17
2019-05-05T08:48:34.720Z,2.73
2019-05-05T08:51:04.963Z,3.27
2019-05-05T08:53:42.586Z,2.33
2019-05-05T08:56:06.166Z,3.20
2019-05-05T08:58:35.921Z,2.97
2019-05-05T09:01:05.260Z,27.40
2019-05-05T09:03:34.485Z,19.03
2019-05-05T09:06:04.670Z,14.90
2019-05-05T09:08:34.836Z,2.70
2019-05-05T09:11:04.875Z,6.10
2019-05-05T09:13:34.373Z,5.43
2019-05-05T09:16:03.930Z,4.43
2019-05-05T09:18:35.695Z,4.53
2019-05-05T09:21:05.553Z,2.83
2019-05-05T09:23:37.793Z,6.00
2019-05-05T09:26:23.962Z,4.27
2019-05-05T09:29:13.729Z,3.00
2019-05-05T09:31:45.091Z,4.20
2019-05-05T09:34:14.643Z,3.17
2019-05-05T09:36:44.982Z,2.37
2019-05-05T09:39:17.007Z,2.23
2019-05-05T09:41:47.237Z,3.07
2019-05-05T09:44:16.487Z,2.23
2019-05-05T09:46:46.126Z,3.13
2019-05-05T09:49:15.789Z,3.90
2019-05-05T09:51:45.148Z,4.60
2019-05-05T09:54:17.320Z,9.77
2019-05-05T09:56:46.070Z,5.37
2019-05-05T09:59:15.797Z,4.40
2019-05-05T10:01:45.612Z,4.90
2019-05-05T10:04:15.281Z,3.00
2019-05-05T10:06:47.786Z,3.30
2019-05-05T10:09:15.504Z,5.00
2019-05-05T10:11:45.080Z,3.40
2019-05-05T10:14:14.632Z,3.87
2019-05-05T10:16:44.239Z,7.30
2019-05-05T10:19:14.019Z,6.53
2019-05-05T10:21:45.085Z,4.80
2019-05-05T10:24:30.156Z,2.70
2019-05-05T10:26:54.771Z,10.13
2019-05-05T10:29:25.009Z,8.07
2019-05-05T10:31:54.873Z,11.17
2019-05-05T10:34:24.301Z,11.60
2019-05-05T10:36:54.014Z,11.20
2019-05-05T10:39:37.067Z,14.07
2019-05-05T10:42:06.669Z,4.30
2019-05-05T10:44:36.377Z,7.07
2019-05-05T10:47:06.105Z,8.20
2019-05-05T10:49:35.485Z,8.83
2019-05-05T10:52:05.340Z,3.90
2019-05-05T10:54:44.258Z,3.93
2019-05-05T10:57:06.522Z,5.37
2019-05-05T10:59:36.254Z,3.53
2019-05-05T11:02:05.598Z,6.67
2019-05-05T11:04:35.395Z,5.00
2019-05-05T11:07:04.774Z,2.90
2019-05-05T11:09:34.138Z,5.07
2019-05-05T11:12:03.793Z,2.67
2019-05-05T11:14:33.682Z,3.27
2019-05-05T11:17:04.115Z,3.90
2019-05-05T11:19:33.883Z,6.93
2019-05-05T11:22:03.051Z,3.13
2019-05-05T11:24:34.447Z,2.27
2019-05-05T11:27:04.473Z,11.33
2019-05-05T11:29:36.224Z,3.20
2019-05-05T11:32:11.687Z,5.77
2019-05-05T11:34:41.497Z,4.40
2019-05-05T11:37:17.150Z,7.60
2019-05-05T11:39:46.316Z,4.83
2019-05-05T11:42:15.933Z,4.37
2019-05-05T11:44:47.446Z,11.60
2019-05-05T11:47:16.500Z,28.83
2019-05-05T11:49:45.781Z,20.43
2019-05-05T11:52:15.443Z,3.23
2019-05-05T11:54:45.241Z,1.73
2019-05-05T11:57:14.943Z,3.87
2019-05-05T11:59:44.165Z,3.40
2019-05-05T12:02:16.546Z,7.13
2019-05-05T12:04:46.209Z,2.13
2019-05-05T12:07:16.163Z,7.27
2019-05-05T12:09:54.758Z,4.10
2019-05-05T12:12:23.369Z,4.83
2019-05-05T12:14:53.867Z,2.47
2019-05-05T12:17:35.897Z,3.70
2019-05-05T12:20:06.038Z,3.60
2019-05-05T12:22:35.622Z,3.77
2019-05-05T12:25:22.017Z,3.70
2019-05-05T12:27:59.741Z,3.20
2019-05-05T12:30:28.998Z,4.33
2019-05-05T12:32:58.926Z,4.33
2019-05-05T12:35:29.714Z,4.27
2019-05-05T12:38:00.143Z,5.60
2019-05-05T12:40:29.888Z,2.33
2019-05-05T12:42:59.886Z,4.07
2019-05-05T12:45:31.090Z,2.47
2019-05-05T12:48:20.675Z,2.13
2019-05-05T12:50:50.435Z,1.97
2019-05-05T12:53:19.652Z,2.47
2019-05-05T12:55:49.810Z,2.07
2019-05-05T12:58:19.103Z,2.50
2019-05-05T13:01:03.741Z,4.30
2019-05-05T13:03:34.592Z,4.73
2019-05-05T13:06:07.304Z,1.60
2019-05-05T13:08:36.462Z,1.93
2019-05-05T13:11:07.335Z,2.93
2019-05-05T13:13:36.467Z,6.80
2019-05-05T13:16:06.315Z,4.00
2019-05-05T13:18:37.407Z,2.20
2019-05-05T13:21:24.516Z,3.80
2019-05-05T13:24:00.436Z,2.10
2019-05-05T13:26:50.078Z,1.83
2019-05-05T13:29:19.717Z,2.30
2019-05-05T13:31:49.011Z,2.00
2019-05-05T13:34:18.936Z,1.83
2019-05-05T13:36:48.564Z,4.20
2019-05-05T13:39:18.232Z,4.27
2019-05-05T13:41:47.945Z,2.03
2019-05-05T13:44:36.805Z,18.07
2019-05-05T13:47:07.003Z,30.43
2019-05-05T13:49:43.597Z,9.40
2019-05-05T13:52:14.007Z,2.50
2019-05-05T13:54:43.852Z,2.67
2019-05-05T13:57:14.359Z,2.53
2019-05-05T13:59:44.470Z,4.67
2019-05-05T14:02:13.980Z,2.90
2019-05-05T14:04:43.785Z,2.87
2019-05-05T14:07:13.261Z,4.70
2019-05-05T14:09:44.161Z,3.00
2019-05-05T14:12:24.019Z,8.93
2019-05-05T14:14:54.640Z,10.67
2019-05-05T14:17:24.064Z,8.53
2019-05-05T14:20:04.195Z,29.40
2019-05-05T14:22:24.333Z,18.30
2019-05-05T14:24:58.696Z,14.37
2019-05-05T14:27:29.486Z,57.53
2019-05-05T14:30:10.301Z,38.10
2019-05-05T14:32:43.853Z,9.47
2019-05-05T14:35:20.876Z,21.00
2019-05-05T14:37:57.344Z,15.00
2019-05-05T14:40:26.546Z,22.63
2019-05-05T14:42:57.835Z,15.43
2019-05-05T14:45:27.057Z,9.70
2019-05-05T14:47:56.724Z,6.13
2019-05-05T14:50:26.751Z,16.03
2019-05-05T14:52:58.426Z,13.07
2019-05-05T14:55:27.462Z,10.10
2019-05-05T14:57:57.241Z,6.53
2019-05-05T15:00:27.617Z,7.07
2019-05-05T15:03:08.428Z,10.93
2019-05-05T15:05:46.761Z,5.27
2019-05-05T15:08:39.635Z,7.53
2019-05-05T15:11:14.303Z,15.60
2019-05-05T15:13:45.344Z,24.07
2019-05-05T15:16:14.997Z,21.27
2019-05-05T15:18:44.171Z,26.53
2019-05-05T15:21:13.843Z,14.17
2019-05-05T15:23:43.684Z,13.50
2019-05-05T15:26:13.347Z,6.10
2019-05-05T15:28:45.231Z,4.30
2019-05-05T15:31:14.159Z,6.60
2019-05-05T15:33:44.134Z,5.37
2019-05-05T15:36:13.791Z,4.30
2019-05-05T15:38:43.793Z,9.40
2019-05-05T15:41:14.541Z,5.13
2019-05-05T15:43:44.205Z,6.97
2019-05-05T15:46:15.156Z,5.43
2019-05-05T15:48:44.627Z,4.03
2019-05-05T15:51:14.461Z,4.43
2019-05-05T15:53:44.293Z,4.17
2019-05-05T15:56:14.723Z,6.33
2019-05-05T15:58:45.004Z,5.00
2019-05-05T16:01:14.343Z,4.90
2019-05-05T16:03:44.032Z,12.00
2019-05-05T16:06:14.336Z,9.10
2019-05-05T16:08:44.507Z,5.37
2019-05-05T16:11:14.296Z,8.60
2019-05-05T16:13:44.108Z,8.07
2019-05-05T16:16:26.281Z,8.50
2019-05-05T16:19:06.319Z,7.90
2019-05-05T16:21:48.096Z,5.17
2019-05-05T16:24:20.358Z,11.13
2019-05-05T16:26:49.589Z,7.03
2019-05-05T16:29:18.765Z,20.37
2019-05-05T16:31:47.885Z,7.13
2019-05-05T16:34:17.492Z,4.73
2019-05-05T16:36:46.924Z,7.40
2019-05-05T16:39:16.702Z,4.90
2019-05-05T16:41:45.932Z,6.90
2019-05-05T16:44:15.812Z,5.37
2019-05-05T16:46:45.147Z,6.43
2019-05-05T16:49:14.285Z,8.20
2019-05-05T16:51:49.869Z,8.93
2019-05-05T16:54:26.236Z,11.73
2019-05-05T16:56:55.430Z,8.43
2019-05-05T16:59:25.099Z,6.73
2019-05-05T17:01:54.845Z,6.30
2019-05-05T17:04:24.475Z,7.13
2019-05-05T17:06:55.005Z,8.07
2019-05-05T17:09:24.366Z,8.40
2019-05-05T17:12:14.107Z,8.07
2019-05-05T17:15:09.170Z,9.80
2019-05-05T17:17:49.424Z,6.70
2019-05-05T17:20:28.763Z,5.93
2019-05-05T17:23:03.990Z,6.37
2019-05-05T17:25:34.283Z,6.03
2019-05-05T17:28:04.598Z,5.77
2019-05-05T17:30:34.233Z,6.03
2019-05-05T17:33:05.237Z,4.77
2019-05-05T17:35:34.567Z,6.13
2019-05-05T17:38:09.267Z,7.03
2019-05-05T17:40:56.256Z,8.83
2019-05-05T17:43:37.404Z,6.23
2019-05-05T17:46:10.279Z,7.87
2019-05-05T17:48:45.783Z,9.23
2019-05-05T17:51:27.058Z,10.07
2019-05-05T17:54:13.507Z,20.80
2019-05-05T17:56:43.311Z,51.67
2019-05-05T17:59:14.103Z,27.40
2019-05-05T18:01:44.220Z,23.53
2019-05-05T18:04:14.097Z,11.63
2019-05-05T18:07:04.240Z,10.80
2019-05-05T18:09:53.806Z,13.97
2019-05-05T18:12:45.830Z,8.87
2019-05-05T18:15:34.243Z,15.77
2019-05-05T18:18:04.397Z,11.67
2019-05-05T18:20:34.248Z,17.23
2019-05-05T18:23:03.535Z,8.87
2019-05-05T18:25:34.610Z,10.43
2019-05-05T18:28:16.258Z,12.90
2019-05-05T18:30:35.014Z,9.83
2019-05-05T18:33:04.254Z,9.97
2019-05-05T18:35:33.937Z,12.27
2019-05-05T18:38:04.158Z,10.07
2019-05-05T18:40:34.359Z,11.33
2019-05-05T18:43:08.473Z,6.93
2019-05-05T18:45:38.380Z,10.40
2019-05-05T18:48:08.170Z,8.07
2019-05-05T18:50:37.415Z,7.23
2019-05-05T18:53:06.714Z,16.67
2019-05-05T18:55:35.893Z,19.63
2019-05-05T18:58:07.858Z,24.27
2019-05-05T19:00:55.198Z,17.43
2019-05-05T19:03:29.182Z,9.77
2019-05-05T19:06:24.103Z,8.40
2019-05-05T19:08:57.089Z,9.57
2019-05-05T19:11:26.299Z,12.30
2019-05-05T19:13:56.278Z,6.60
2019-05-05T19:16:26.021Z,8.77
2019-05-05T19:18:55.788Z,12.03
2019-05-05T19:21:34.003Z,21.80
2019-05-05T19:24:05.482Z,11.53
2019-05-05T19:26:34.872Z,22.53
2019-05-05T19:29:05.175Z,14.33
2019-05-05T19:31:36.501Z,11.20
2019-05-05T19:34:05.858Z,9.63
2019-05-05T19:36:35.089Z,10.93
2019-05-05T19:39:05.890Z,10.53
2019-05-05T19:41:36.874Z,10.10
2019-05-05T19:44:06.567Z,10.73
2019-05-05T19:47:00.240Z,12.93
2019-05-05T19:49:29.819Z,12.73
2019-05-05T19:51:59.438Z,20.33
2019-05-05T19:54:29.127Z,24.07
2019-05-05T19:56:58.883Z,36.70
2019-05-05T19:59:28.141Z,19.40
2019-05-05T20:01:57.351Z,26.43
2019-05-05T20:04:27.107Z,23.77
2019-05-05T20:06:56.462Z,22.60
2019-05-05T20:09:25.763Z,17.20
2019-05-05T20:11:54.921Z,21.30
2019-05-05T20:14:24.931Z,21.03
2019-05-05T20:17:06.465Z,22.07
2019-05-05T20:19:40.582Z,15.27
2019-05-05T20:22:10.811Z,21.80
2019-05-05T20:24:40.070Z,17.50
2019-05-05T20:27:09.656Z,21.00
2019-05-05T20:29:39.821Z,19.77
2019-05-05T20:32:09.630Z,16.37
2019-05-05T20:34:57.024Z,17.10
2019-05-05T20:37:34.280Z,21.97
2019-05-05T20:40:04.992Z,10.77
2019-05-05T20:42:35.058Z,17.23
2019-05-05T20:45:05.415Z,19.57
2019-05-05T20:47:34.994Z,13.83
2019-05-05T20:50:05.249Z,15.97
2019-05-05T20:52:35.321Z,16.57
2019-05-05T20:55:06.055Z,17.00
2019-05-05T20:57:36.447Z,16.00
2019-05-05T21:00:06.839Z,13.87
2019-05-05T21:02:40.153Z,17.50
2019-05-05T21:05:09.987Z,18.37
2019-05-05T21:07:39.373Z,17.03
2019-05-05T21:10:08.640Z,15.70
2019-05-05T21:12:42.347Z,18.30
2019-05-05T21:15:12.926Z,15.17
2019-05-05T21:17:40.939Z,14.73
2019-05-05T21:20:10.882Z,21.37
2019-05-05T21:22:55.803Z,14.70
2019-05-05T21:25:33.746Z,15.63
2019-05-05T21:28:03.716Z,21.70
2019-05-05T21:30:35.257Z,17.47
2019-05-05T21:33:05.373Z,12.00
2019-05-05T21:35:35.973Z,17.90
2019-05-05T21:38:08.770Z,16.57
2019-05-05T21:40:38.482Z,10.83
2019-05-05T21:43:07.914Z,13.83
2019-05-05T21:45:37.206Z,16.10
2019-05-05T21:48:07.231Z,15.30
2019-05-05T21:50:42.288Z,17.17
2019-05-05T21:53:16.910Z,18.17
2019-05-05T21:55:57.805Z,16.70
2019-05-05T21:58:37.058Z,11.73
2019-05-05T22:01:14.846Z,16.93
2019-05-05T22:03:44.510Z,19.90
2019-05-05T22:06:14.605Z,13.80
2019-05-05T22:08:44.579Z,12.77
2019-05-05T22:11:14.828Z,16.33
2019-05-05T22:13:44.456Z,16.73
2019-05-05T22:16:14.126Z,17.87
2019-05-05T22:18:44.672Z,11.70
2019-05-05T22:21:21.558Z,16.60
2019-05-05T22:24:09.251Z,11.83
2019-05-05T22:26:38.790Z,16.77
2019-05-05T22:29:08.854Z,13.23
2019-05-05T22:31:38.894Z,19.40
2019-05-05T22:34:08.636Z,18.67
2019-05-05T22:36:38.890Z,16.73
2019-05-05T22:39:09.429Z,16.57
2019-05-05T22:41:38.961Z,11.57
2019-05-05T22:44:08.608Z,19.03
2019-05-05T22:46:38.890Z,16.17
2019-05-05T22:49:08.430Z,15.73
2019-05-05T22:51:38.274Z,13.97
2019-05-05T22:54:08.453Z,15.00
2019-05-05T22:56:38.316Z,14.37
2019-05-05T22:59:08.477Z,20.13
2019-05-05T23:01:37.911Z,14.33
2019-05-05T23:04:16.761Z,16.97
2019-05-05T23:06:49.073Z,16.13
2019-05-05T23:09:19.597Z,12.83
2019-05-05T23:11:48.869Z,11.43
2019-05-05T23:14:30.601Z,15.73
2019-05-05T23:17:19.642Z,15.23
2019-05-05T23:20:05.436Z,14.33
2019-05-05T23:22:41.299Z,16.73
2019-05-05T23:25:16.829Z,12.70
2019-05-05T23:27:54.588Z,21.10
2019-05-05T23:30:37.814Z,14.83
2019-05-05T23:32:55.782Z,11.03
2019-05-05T23:35:25.506Z,16.93
2019-05-05T23:37:55.348Z,16.60
2019-05-05T23:40:25.150Z,15.43
2019-05-05T23:42:54.474Z,13.70
2019-05-05T23:45:24.952Z,12.17
2019-05-05T23:47:54.888Z,14.37
2019-05-05T23:50:25.405Z,14.63
2019-05-05T23:52:54.870Z,19.20
2019-05-05T23:55:24.298Z,14.77
2019-05-05T23:57:54.577Z,15.90
